Time,TemperatureF,DewpointF,PressureIn,WindDirection,WindDirectionDegrees,WindSpeedMPH,WindSpeedGustMPH,Humidity,HourlyPrecipIn,Conditions,Clouds,dailyrainin,SolarRadiationWatts/m^2,SoftwareType,DateUTC
2013-07-06 00:05:00,75.4,62.4,30.25,SSE,166,7.0,13.0,64,0.00,,,0.00,0,Wunderground v.1.15,2013-07-06 05:05:00,
2013-07-06 00:15:00,75.4,62.4,30.25,SSE,156,8.0,13.0,64,0.00,,,0.00,0,Wunderground v.1.15,2013-07-06 05:15:00,
2013-07-06 00:20:00,75.3,62.3,30.24,South,182,8.0,13.0,64,0.00,,,0.00,0,Wunderground v.1.15,2013-07-06 05:20:00,
2013-07-06 00:25:00,75.3,62.3,30.24,South,182,9.0,13.0,64,0.00,,,0.00,0,Wunderground v.1.15,2013-07-06 05:25:00,
2013-07-06 00:35:00,75.1,62.1,30.25,SSE,154,8.0,13.0,64,0.00,,,0.00,0,Wunderground v.1.15,2013-07-06 05:35:00,
2013-07-06 00:50:00,74.9,61.9,30.25,SSE,151,8.0,13.0,64,0.00,,,0.00,0,Wunderground v.1.15,2013-07-06 05:50:00,
2013-07-06 00:55:00,74.8,61.8,30.25,SSE,155,8.0,15.0,64,0.00,,,0.00,0,Wunderground v.1.15,2013-07-06 05:55:00,
2013-07-06 01:05:00,74.8,61.8,30.25,SSE,158,9.0,15.0,64,0.00,,,0.00,0,Wunderground v.1.15,2013-07-06 06:05:00,
2013-07-06 01:15:00,74.9,62.3,30.25,South,171,8.0,14.0,65,0.00,,,0.00,0,Wunderground v.1.15,2013-07-06 06:15:00,
2013-07-06 01:25:00,74.6,62.1,30.25,SSE,148,7.0,14.0,65,0.00,,,0.00,0,Wunderground v.1.15,2013-07-06 06:25:00,
2013-07-06 01:35:00,74.2,62.1,30.25,South,173,7.0,14.0,66,0.00,,,0.00,0,Wunderground v.1.15,2013-07-06 06:35:00,
2013-07-06 01:45:00,73.9,62.2,30.24,SSE,150,7.0,14.0,67,0.00,,,0.00,0,Wunderground v.1.15,2013-07-06 06:45:00,
2013-07-06 01:55:00,73.6,62.0,30.24,SSE,159,7.0,12.0,67,0.00,,,0.00,0,Wunderground v.1.15,2013-07-06 06:55:00,
2013-07-06 02:05:00,73.4,62.2,30.24,SSE,159,7.0,11.0,68,0.00,,,0.00,0,Wunderground v.1.15,2013-07-06 07:05:00,
2013-07-06 02:10:00,73.2,62.0,30.24,SE,134,7.0,11.0,68,0.00,,,0.00,0,Wunderground v.1.15,2013-07-06 07:10:00,
2013-07-06 02:15:00,73.1,61.9,30.24,SSE,163,7.0,12.0,68,0.00,,,0.00,0,Wunderground v.1.15,2013-07-06 07:15:00,
2013-07-06 02:25:00,72.7,61.9,30.24,SE,146,8.0,14.0,69,0.00,,,0.00,0,Wunderground v.1.15,2013-07-06 07:25:00,
2013-07-06 02:35:00,72.5,62.2,30.24,SE,140,9.0,14.0,70,0.00,,,0.00,0,Wunderground v.1.15,2013-07-06 07:35:00,
2013-07-06 02:45:00,72.4,62.1,30.24,SE,139,9.0,14.0,70,0.00,,,0.00,0,Wunderground v.1.15,2013-07-06 07:45:00,
2013-07-06 02:55:00,72.3,62.0,30.25,SE,136,7.0,10.0,70,0.00,,,0.00,0,Wunderground v.1.15,2013-07-06 07:55:00,
2013-07-06 03:05:00,72.2,61.9,30.24,SSE,154,8.0,8.0,70,0.00,,,0.00,0,Wunderground v.1.15,2013-07-06 08:05:00,
2013-07-06 03:15:00,72.0,62.1,30.24,SSE,148,7.0,11.0,71,0.00,,,0.00,0,Wunderground v.1.15,2013-07-06 08:15:00,
2013-07-06 03:25:00,71.7,61.8,30.24,SSE,158,7.0,8.0,71,0.00,,,0.00,0,Wunderground v.1.15,2013-07-06 08:25:00,
2013-07-06 03:35:00,71.5,61.6,30.24,SSE,167,7.0,8.0,71,0.00,,,0.00,0,Wunderground v.1.15,2013-07-06 08:35:00,
2013-07-06 03:45:00,71.3,61.8,30.24,SSE,155,7.0,12.0,72,0.00,,,0.00,0,Wunderground v.1.15,2013-07-06 08:45:00,
2013-07-06 03:55:00,71.2,61.7,30.24,SSE,159,7.0,12.0,72,0.00,,,0.00,0,Wunderground v.1.15,2013-07-06 08:55:00,
2013-07-06 04:05:00,71.0,61.9,30.24,SE,131,6.0,10.0,73,0.00,,,0.00,0,Wunderground v.1.15,2013-07-06 09:05:00,
2013-07-06 04:15:00,70.8,61.7,30.24,SSE,148,6.0,11.0,73,0.00,,,0.00,0,Wunderground v.1.15,2013-07-06 09:15:00,
2013-07-06 04:25:00,70.8,61.7,30.24,SSE,160,6.0,8.0,73,0.00,,,0.00,0,Wunderground v.1.15,2013-07-06 09:25:00,
2013-07-06 04:35:00,70.4,61.7,30.24,South,170,6.0,11.0,74,0.00,,,0.00,0,Wunderground v.1.15,2013-07-06 09:35:00,
2013-07-06 04:45:00,70.2,61.9,30.24,SSE,161,6.0,7.0,75,0.00,,,0.00,0,Wunderground v.1.15,2013-07-06 09:45:00,
2013-07-06 04:55:00,69.9,62.0,30.24,SSE,151,7.0,12.0,76,0.00,,,0.00,0,Wunderground v.1.15,2013-07-06 09:55:00,
2013-07-06 05:05:00,69.8,62.3,30.24,SSE,166,6.0,11.0,77,0.00,,,0.00,0,Wunderground v.1.15,2013-07-06 10:05:00,
2013-07-06 05:15:00,69.6,62.1,30.24,SE,137,5.0,11.0,77,0.00,,,0.00,0,Wunderground v.1.15,2013-07-06 10:15:00,
2013-07-06 05:25:00,69.4,62.2,30.25,SSE,150,5.0,9.0,78,0.00,,,0.00,0,Wunderground v.1.15,2013-07-06 10:25:00,
2013-07-06 05:35:00,69.3,62.5,30.25,SSE,153,6.0,6.0,79,0.00,,,0.00,0,Wunderground v.1.15,2013-07-06 10:35:00,
2013-07-06 05:45:00,69.3,62.5,30.24,SE,137,7.0,11.0,79,0.00,,,0.00,0,Wunderground v.1.15,2013-07-06 10:45:00,
2013-07-06 05:55:00,69.3,62.5,30.25,SSE,153,8.0,14.0,79,0.00,,,0.00,7,Wunderground v.1.15,2013-07-06 10:55:00,
2013-07-06 06:05:00,69.3,62.5,30.25,SE,142,7.0,14.0,79,0.00,,,0.00,12,Wunderground v.1.15,2013-07-06 11:05:00,
2013-07-06 06:15:00,69.3,62.9,30.26,South,173,6.0,11.0,80,0.00,,,0.00,18,Wunderground v.1.15,2013-07-06 11:15:00,
2013-07-06 06:25:00,69.1,62.7,30.26,SSE,147,6.0,8.0,80,0.00,,,0.00,21,Wunderground v.1.15,2013-07-06 11:25:00,
2013-07-06 06:35:00,69.2,63.1,30.26,SE,137,5.0,7.0,81,0.00,,,0.00,28,Wunderground v.1.15,2013-07-06 11:35:00,
2013-07-06 06:45:00,69.2,63.1,30.25,SE,143,5.0,10.0,81,0.00,,,0.00,35,Wunderground v.1.15,2013-07-06 11:45:00,
2013-07-06 06:50:00,69.3,63.2,30.26,SSE,168,5.0,10.0,81,0.00,,,0.00,42,Wunderground v.1.15,2013-07-06 11:50:00,
2013-07-06 06:55:00,69.5,63.4,30.26,SSE,163,6.0,11.0,81,0.00,,,0.00,47,Wunderground v.1.15,2013-07-06 11:55:00,
2013-07-06 07:05:00,69.9,63.4,30.25,SE,146,6.0,11.0,80,0.00,,,0.00,67,Wunderground v.1.15,2013-07-06 12:05:00,
2013-07-06 07:15:00,70.2,63.7,30.25,SSE,166,7.0,12.0,80,0.00,,,0.00,102,Wunderground v.1.15,2013-07-06 12:15:00,
2013-07-06 07:25:00,70.9,64.1,30.25,SE,142,7.0,12.0,79,0.00,,,0.00,118,Wunderground v.1.15,2013-07-06 12:25:00,
2013-07-06 07:35:00,71.5,64.3,30.25,SSE,148,7.0,8.0,78,0.00,,,0.00,114,Wunderground v.1.15,2013-07-06 12:35:00,
2013-07-06 07:45:00,71.9,64.7,30.25,SSE,167,7.0,13.0,78,0.00,,,0.00,125,Wunderground v.1.15,2013-07-06 12:45:00,
2013-07-06 07:55:00,72.4,64.8,30.25,SSE,150,6.0,12.0,77,0.00,,,0.00,260,Wunderground v.1.15,2013-07-06 12:55:00,
2013-07-06 08:05:00,73.4,65.4,30.25,South,169,8.0,15.0,76,0.00,,,0.00,292,Wunderground v.1.15,2013-07-06 13:05:00,
2013-07-06 08:15:00,74.1,65.3,30.25,South,180,9.0,15.0,74,0.00,,,0.00,315,Wunderground v.1.15,2013-07-06 13:15:00,
2013-07-06 08:25:00,75.1,65.5,30.24,SSE,167,9.0,17.0,72,0.00,,,0.00,362,Wunderground v.1.15,2013-07-06 13:25:00,
2013-07-06 08:35:00,75.9,65.8,30.24,SSE,157,8.0,17.0,71,0.00,,,0.00,387,Wunderground v.1.15,2013-07-06 13:35:00,
2013-07-06 08:45:00,77.1,66.1,30.24,SSW,199,8.0,14.0,69,0.00,,,0.00,388,Wunderground v.1.15,2013-07-06 13:45:00,
2013-07-06 08:55:00,77.8,66.0,30.24,SSE,163,10.0,10.0,67,0.00,,,0.00,413,Wunderground v.1.15,2013-07-06 13:55:00,
2013-07-06 09:05:00,78.6,65.8,30.24,SSE,163,10.0,17.0,65,0.00,,,0.00,464,Wunderground v.1.15,2013-07-06 14:05:00,
2013-07-06 09:15:00,79.0,65.8,30.24,SSE,159,11.0,17.0,64,0.00,,,0.00,485,Wunderground v.1.15,2013-07-06 14:15:00,
2013-07-06 09:25:00,79.0,66.2,30.23,SSE,161,12.0,19.0,65,0.00,,,0.00,292,Wunderground v.1.15,2013-07-06 14:25:00,
2013-07-06 09:35:00,79.0,66.2,30.23,SSE,163,11.0,19.0,65,0.00,,,0.00,334,Wunderground v.1.15,2013-07-06 14:35:00,
2013-07-06 09:45:00,79.7,66.4,30.23,SSE,165,12.0,15.0,64,0.00,,,0.00,406,Wunderground v.1.15,2013-07-06 14:45:00,
2013-07-06 09:55:00,80.3,66.6,30.22,SSE,161,12.0,20.0,63,0.00,,,0.00,527,Wunderground v.1.15,2013-07-06 14:55:00,
2013-07-06 10:05:00,81.2,66.9,30.22,South,170,12.0,15.0,62,0.00,,,0.00,357,Wunderground v.1.15,2013-07-06 15:05:00,
2013-07-06 10:15:00,81.2,66.9,30.22,SSE,157,11.0,19.0,62,0.00,,,0.00,499,Wunderground v.1.15,2013-07-06 15:15:00,
2013-07-06 10:25:00,82.1,67.3,30.22,SSE,167,10.0,15.0,61,0.00,,,0.00,504,Wunderground v.1.15,2013-07-06 15:25:00,
2013-07-06 10:35:00,82.8,67.5,30.22,SSE,161,10.0,16.0,60,0.00,,,0.00,659,Wunderground v.1.15,2013-07-06 15:35:00,
2013-07-06 10:45:00,83.9,68.0,30.23,SSE,167,11.0,19.0,59,0.00,,,0.00,679,Wunderground v.1.15,2013-07-06 15:45:00,
2013-07-06 10:55:00,84.5,68.1,30.22,South,189,9.0,22.0,58,0.00,,,0.00,700,Wunderground v.1.15,2013-07-06 15:55:00,
2013-07-06 11:05:00,85.0,68.1,30.22,SSW,212,9.0,22.0,57,0.00,,,0.00,715,Wunderground v.1.15,2013-07-06 16:05:00,
2013-07-06 11:15:00,85.4,67.9,30.22,SW,215,11.0,22.0,56,0.00,,,0.00,737,Wunderground v.1.15,2013-07-06 16:15:00,
2013-07-06 11:25:00,85.6,67.6,30.22,SW,231,12.0,12.0,55,0.00,,,0.00,752,Wunderground v.1.15,2013-07-06 16:25:00,
2013-07-06 11:35:00,85.8,68.3,30.21,SSE,153,11.0,18.0,56,0.00,,,0.00,772,Wunderground v.1.15,2013-07-06 16:35:00,
2013-07-06 11:45:00,86.1,68.0,30.21,SSW,198,11.0,15.0,55,0.00,,,0.00,788,Wunderground v.1.15,2013-07-06 16:45:00,
2013-07-06 11:55:00,86.5,68.4,30.21,South,169,11.0,21.0,55,0.00,,,0.00,807,Wunderground v.1.15,2013-07-06 16:55:00,
2013-07-06 12:05:00,87.1,67.9,30.21,SSW,200,11.0,11.0,53,0.00,,,0.00,821,Wunderground v.1.15,2013-07-06 17:05:00,
2013-07-06 12:15:00,87.1,67.9,30.20,SSE,163,11.0,20.0,53,0.00,,,0.00,831,Wunderground v.1.15,2013-07-06 17:15:00,
2013-07-06 12:30:00,87.7,68.4,30.20,SE,136,11.0,11.0,53,0.00,,,0.00,840,Wunderground v.1.15,2013-07-06 17:30:00,
2013-07-06 12:35:00,88.4,69.1,30.20,SSW,192,12.0,12.0,53,0.00,,,0.00,844,Wunderground v.1.15,2013-07-06 17:35:00,
2013-07-06 12:55:00,88.9,67.3,30.19,South,182,13.0,13.0,49,0.00,,,0.00,856,Wunderground v.1.15,2013-07-06 17:55:00,
2013-07-06 13:05:00,89.4,67.7,30.19,SSW,196,12.0,24.0,49,0.00,,,0.00,858,Wunderground v.1.15,2013-07-06 18:05:00,
2013-07-06 13:20:00,89.6,67.3,30.19,South,171,15.0,21.0,48,0.00,,,0.00,861,Wunderground v.1.15,2013-07-06 18:20:00,
2013-07-06 13:25:00,89.7,66.8,30.19,South,180,14.0,22.0,47,0.00,,,0.00,860,Wunderground v.1.15,2013-07-06 18:25:00,
2013-07-06 13:35:00,90.2,67.2,30.19,SSW,200,14.0,22.0,47,0.00,,,0.00,858,Wunderground v.1.15,2013-07-06 18:35:00,
2013-07-06 13:55:00,90.2,67.2,30.19,SSW,210,12.0,21.0,47,0.00,,,0.00,853,Wunderground v.1.15,2013-07-06 18:55:00,
2013-07-06 14:15:00,90.9,67.3,30.19,South,180,12.0,15.0,46,0.00,,,0.00,842,Wunderground v.1.15,2013-07-06 19:15:00,
2013-07-06 14:20:00,91.0,67.3,30.18,South,184,13.0,13.0,46,0.00,,,0.00,837,Wunderground v.1.15,2013-07-06 19:20:00,
2013-07-06 14:30:00,91.0,68.0,30.18,South,169,11.0,20.0,47,0.00,,,0.00,823,Wunderground v.1.15,2013-07-06 19:30:00,
2013-07-06 15:00:00,91.4,66.4,30.18,SSE,159,14.0,21.0,44,0.00,,,0.00,791,Wunderground v.1.15,2013-07-06 20:00:00,
2013-07-06 15:05:00,91.2,67.5,30.18,SE,136,13.0,26.0,46,0.00,,,0.00,786,Wunderground v.1.15,2013-07-06 20:05:00,
2013-07-06 15:15:00,91.5,67.2,30.18,South,170,13.0,26.0,45,0.00,,,0.00,770,Wunderground v.1.15,2013-07-06 20:15:00,
2013-07-06 15:26:00,91.5,67.2,30.18,SSE,155,14.0,25.0,45,0.00,,,0.00,758,Wunderground v.1.15,2013-07-06 20:26:00,
2013-07-06 15:36:00,91.5,67.8,30.17,South,169,14.0,14.0,46,0.00,,,0.00,731,Wunderground v.1.15,2013-07-06 20:36:00,
2013-07-06 15:45:00,91.6,67.9,30.18,South,170,13.0,21.0,46,0.00,,,0.00,722,Wunderground v.1.15,2013-07-06 20:45:00,
2013-07-06 15:55:00,91.6,67.3,30.18,South,177,13.0,17.0,45,0.00,,,0.00,696,Wunderground v.1.15,2013-07-06 20:55:00,
2013-07-06 16:05:00,91.4,67.7,30.17,SSW,208,13.0,24.0,46,0.00,,,0.00,682,Wunderground v.1.15,2013-07-06 21:05:00,
2013-07-06 16:10:00,91.5,67.2,30.17,South,188,12.0,24.0,45,0.00,,,0.00,671,Wunderground v.1.15,2013-07-06 21:10:00,
2013-07-06 16:15:00,91.4,66.4,30.17,South,173,13.0,24.0,44,0.00,,,0.00,659,Wunderground v.1.15,2013-07-06 21:15:00,
2013-07-06 16:20:00,91.7,67.3,30.17,SSW,212,14.0,14.0,45,0.00,,,0.00,654,Wunderground v.1.15,2013-07-06 21:20:00,
2013-07-06 16:30:00,91.4,66.4,30.17,SSE,159,14.0,23.0,44,0.00,,,0.00,628,Wunderground v.1.15,2013-07-06 21:30:00,
2013-07-06 16:35:00,91.3,67.0,30.17,South,169,14.0,24.0,45,0.00,,,0.00,617,Wunderground v.1.15,2013-07-06 21:35:00,
2013-07-06 16:45:00,91.3,66.3,30.17,South,173,13.0,23.0,44,0.00,,,0.00,591,Wunderground v.1.15,2013-07-06 21:45:00,
2013-07-06 16:55:00,91.5,67.2,30.17,South,170,11.0,13.0,45,0.00,,,0.00,564,Wunderground v.1.15,2013-07-06 21:55:00,
2013-07-06 17:05:00,91.1,65.5,30.17,SSE,162,13.0,22.0,43,0.00,,,0.00,540,Wunderground v.1.15,2013-07-06 22:05:00,
2013-07-06 17:15:00,91.2,66.9,30.16,SE,142,12.0,25.0,45,0.00,,,0.00,512,Wunderground v.1.15,2013-07-06 22:15:00,
2013-07-06 17:25:00,91.1,66.8,30.16,SSE,161,12.0,25.0,45,0.00,,,0.00,485,Wunderground v.1.15,2013-07-06 22:25:00,
2013-07-06 17:35:00,90.8,67.2,30.16,SSE,151,11.0,13.0,46,0.00,,,0.00,461,Wunderground v.1.15,2013-07-06 22:35:00,
2013-07-06 17:40:00,90.7,67.1,30.16,South,175,11.0,11.0,46,0.00,,,0.00,446,Wunderground v.1.15,2013-07-06 22:40:00,
2013-07-06 17:45:00,90.7,67.7,30.16,SSE,158,10.0,20.0,47,0.00,,,0.00,432,Wunderground v.1.15,2013-07-06 22:45:00,
2013-07-06 17:56:00,90.6,68.2,30.16,SSE,150,11.0,11.0,48,0.00,,,0.00,410,Wunderground v.1.15,2013-07-06 22:56:00,
2013-07-06 18:05:00,90.0,67.1,30.16,SSE,165,11.0,19.0,47,0.00,,,0.00,329,Wunderground v.1.15,2013-07-06 23:05:00,
2013-07-06 18:20:00,88.8,67.2,30.16,SSE,149,11.0,11.0,49,0.00,,,0.00,91,Wunderground v.1.15,2013-07-06 23:20:00,
2013-07-06 18:25:00,88.5,66.9,30.16,South,170,10.0,19.0,49,0.00,,,0.00,81,Wunderground v.1.15,2013-07-06 23:25:00,
2013-07-06 18:35:00,87.9,67.5,30.16,South,169,8.0,19.0,51,0.00,,,0.00,88,Wunderground v.1.15,2013-07-06 23:35:00,
2013-07-06 18:45:00,87.4,68.2,30.16,SE,140,8.0,17.0,53,0.00,,,0.00,100,Wunderground v.1.15,2013-07-06 23:45:00,
2013-07-06 18:55:00,87.4,67.6,30.16,SE,145,10.0,17.0,52,0.00,,,0.00,84,Wunderground v.1.15,2013-07-06 23:55:00,
2013-07-06 19:05:00,87.2,68.5,30.17,South,169,10.0,11.0,54,0.00,,,0.00,70,Wunderground v.1.15,2013-07-07 00:05:00,
2013-07-06 19:15:00,86.4,68.3,30.16,SSE,155,8.0,16.0,55,0.00,,,0.00,69,Wunderground v.1.15,2013-07-07 00:15:00,
2013-07-06 19:25:00,85.9,68.9,30.16,South,183,7.0,15.0,57,0.00,,,0.00,53,Wunderground v.1.15,2013-07-07 00:25:00,
2013-07-06 19:35:00,85.7,68.7,30.17,SSE,157,9.0,14.0,57,0.00,,,0.00,49,Wunderground v.1.15,2013-07-07 00:35:00,
2013-07-06 19:50:00,85.4,68.9,30.17,SSE,160,9.0,9.0,58,0.00,,,0.00,47,Wunderground v.1.15,2013-07-07 00:50:00,
2013-07-06 19:55:00,85.2,69.3,30.17,SSE,160,9.0,14.0,59,0.00,,,0.00,39,Wunderground v.1.15,2013-07-07 00:55:00,
2013-07-06 20:20:00,84.6,69.7,30.17,South,169,7.0,12.0,61,0.00,,,0.00,28,Wunderground v.1.15,2013-07-07 01:20:00,
2013-07-06 20:25:00,84.4,70.0,30.17,South,171,7.0,13.0,62,0.00,,,0.00,26,Wunderground v.1.15,2013-07-07 01:25:00,
2013-07-06 20:35:00,84.0,70.0,30.18,SSE,157,5.0,10.0,63,0.00,,,0.00,14,Wunderground v.1.15,2013-07-07 01:35:00,
2013-07-06 20:45:00,83.4,69.9,30.18,SSE,159,5.0,11.0,64,0.00,,,0.00,7,Wunderground v.1.15,2013-07-07 01:45:00,
2013-07-06 20:55:00,83.0,69.6,30.18,South,178,5.0,8.0,64,0.00,,,0.00,0,Wunderground v.1.15,2013-07-07 01:55:00,
2013-07-06 21:05:00,82.8,69.8,30.18,SSE,155,6.0,9.0,65,0.00,,,0.00,0,Wunderground v.1.15,2013-07-07 02:05:00,
2013-07-06 21:15:00,82.3,69.4,30.18,SSE,151,6.0,10.0,65,0.00,,,0.00,0,Wunderground v.1.15,2013-07-07 02:15:00,
2013-07-06 21:25:00,82.0,69.5,30.19,SSE,163,7.0,9.0,66,0.00,,,0.00,0,Wunderground v.1.15,2013-07-07 02:25:00,
2013-07-06 21:35:00,81.7,69.2,30.19,South,173,6.0,15.0,66,0.00,,,0.00,0,Wunderground v.1.15,2013-07-07 02:35:00,
2013-07-06 21:45:00,81.4,69.4,30.21,SSE,165,5.0,10.0,67,0.00,,,0.00,0,Wunderground v.1.15,2013-07-07 02:45:00,
2013-07-06 21:55:00,81.1,69.1,30.21,South,186,5.0,10.0,67,0.00,,,0.00,0,Wunderground v.1.15,2013-07-07 02:55:00,
2013-07-06 22:05:00,80.8,69.2,30.22,South,182,6.0,11.0,68,0.00,,,0.00,0,Wunderground v.1.15,2013-07-07 03:05:00,
2013-07-06 22:15:00,80.2,69.1,30.22,SSE,158,5.0,11.0,69,0.00,,,0.00,0,Wunderground v.1.15,2013-07-07 03:15:00,
2013-07-06 22:35:00,79.9,68.4,30.23,SSW,201,5.0,7.0,68,0.00,,,0.00,0,Wunderground v.1.15,2013-07-07 03:35:00,
2013-07-06 22:50:00,79.4,67.5,30.22,South,171,6.0,10.0,67,0.00,,,0.00,0,Wunderground v.1.15,2013-07-07 03:50:00,
2013-07-06 22:55:00,79.3,67.0,30.22,SSE,159,6.0,11.0,66,0.00,,,0.00,0,Wunderground v.1.15,2013-07-07 03:55:00,
2013-07-06 23:05:00,79.2,66.9,30.22,South,171,7.0,11.0,66,0.00,,,0.00,0,Wunderground v.1.15,2013-07-07 04:05:00,
2013-07-06 23:10:00,79.0,66.7,30.22,SSE,159,7.0,10.0,66,0.00,,,0.00,0,Wunderground v.1.15,2013-07-07 04:10:00,
2013-07-06 23:15:00,78.9,66.6,30.22,SSE,161,7.0,11.0,66,0.00,,,0.00,0,Wunderground v.1.15,2013-07-07 04:15:00,
2013-07-06 23:20:00,78.7,66.4,30.22,South,169,7.0,7.0,66,0.00,,,0.00,0,Wunderground v.1.15,2013-07-07 04:20:00,
2013-07-06 23:25:00,78.4,66.5,30.22,SE,145,6.0,11.0,67,0.00,,,0.00,0,Wunderground v.1.15,2013-07-07 04:25:00,
2013-07-06 23:35:00,77.9,66.5,30.22,SSE,167,5.0,9.0,68,0.00,,,0.00,0,Wunderground v.1.15,2013-07-07 04:35:00,
2013-07-06 23:45:00,77.3,66.3,30.23,South,169,6.0,10.0,69,0.00,,,0.00,0,Wunderground v.1.15,2013-07-07 04:45:00,
2013-07-06 23:55:00,77.0,66.5,30.23,South,186,5.0,10.0,70,0.00,,,0.00,0,Wunderground v.1.15,2013-07-07 04:55:00,